Chiniot Weather



Chiniot's Current Weather

Temprature 16.14o overcast clouds

overcast clouds

Rain: 0 %

Min Temprature16.14o
Max Temprature16.14o
Humidity27
Wind Speed1.92 m/h
Sun Rise06:58:13
Sun Set17:05:04
Current Time: 12-Dec-2019 01:26:29
Lat/Lon: 31.72, 72.98




Chiniot's Geo Location



Chiniot's Weather Forecast

Time Overall Temp Min Temp Max Temp Humidity Wind Speed Rain
12-Dec-2019 (Thu)
02:00:00 overcast clouds 16.140 16.140 16.140 27 1.92 m/h 0 %
05:00:00 overcast clouds 15.430 15.430 15.430 32 1.79 m/h 0 %
08:00:00 overcast clouds 16.070 16.070 16.070 30 2.63 m/h 0 %
11:00:00 overcast clouds 16.070 16.070 16.070 52 5.57 m/h 0 %
14:00:00 moderate rain 12.930 12.930 12.930 82 2.64 m/h 450 %
17:00:00 light rain 12.350 12.350 12.350 84 1.95 m/h 294 %
20:00:00 light rain 12.280 12.280 12.280 83 3.41 m/h 181 %
23:00:00 light rain 11.860 11.860 11.860 80 2.92 m/h 38 %
13-Dec-2019 (Fri)
02:00:00 light rain 11.590 11.590 11.590 83 2.06 m/h 31 %
05:00:00 light rain 11.150 11.150 11.150 82 1.96 m/h 6 %
08:00:00 broken clouds 10.860 10.860 10.860 82 2.29 m/h 0 %
11:00:00 scattered clouds 15.340 15.340 15.340 62 3.29 m/h 0 %
14:00:00 few clouds 17.470 17.470 17.470 51 2.84 m/h 0 %
17:00:00 broken clouds 16.830 16.830 16.830 52 2.19 m/h 0 %
20:00:00 broken clouds 14.340 14.340 14.340 59 1.99 m/h 0 %
23:00:00 scattered clouds 13.110 13.110 13.110 62 1.56 m/h 0 %
14-Dec-2019 (Sat)
02:00:00 clear sky 12.290 12.290 12.290 66 0.57 m/h 0 %
05:00:00 clear sky 11.700 11.700 11.700 68 0.39 m/h 0 %
08:00:00 clear sky 12.380 12.380 12.380 66 1.23 m/h 0 %
11:00:00 clear sky 17.290 17.290 17.290 48 1.13 m/h 0 %
14:00:00 clear sky 19.220 19.220 19.220 41 0.82 m/h 0 %
17:00:00 clear sky 17.250 17.250 17.250 46 0.99 m/h 0 %
20:00:00 scattered clouds 15.330 15.330 15.330 52 0.96 m/h 0 %
23:00:00 broken clouds 14.170 14.170 14.170 57 1.42 m/h 0 %
15-Dec-2019 (Sun)
02:00:00 overcast clouds 13.300 13.300 13.300 64 1.6 m/h 0 %
05:00:00 overcast clouds 12.270 12.270 12.270 72 1.57 m/h 0 %
08:00:00 scattered clouds 12.610 12.610 12.610 69 1.63 m/h 0 %
11:00:00 few clouds 18.050 18.050 18.050 43 3.27 m/h 0 %
14:00:00 clear sky 20.170 20.170 20.170 31 3.18 m/h 0 %
17:00:00 clear sky 17.640 17.640 17.640 36 1.52 m/h 0 %
20:00:00 clear sky 14.860 14.860 14.860 45 1.71 m/h 0 %
23:00:00 clear sky 13.660 13.660 13.660 50 1.83 m/h 0 %
16-Dec-2019 (Mon)
02:00:00 clear sky 12.770 12.770 12.770 54 1.79 m/h 0 %
05:00:00 clear sky 11.800 11.800 11.800 55 1.6 m/h 0 %
08:00:00 clear sky 12.010 12.010 12.010 51 1.69 m/h 0 %
11:00:00 clear sky 17.690 17.690 17.690 34 2.35 m/h 0 %
14:00:00 clear sky 19.900 19.900 19.900 28 1.94 m/h 0 %
17:00:00 clear sky 17.280 17.280 17.280 33 0.99 m/h 0 %
20:00:00 clear sky 14.790 14.790 14.790 37 2.17 m/h 0 %
23:00:00 clear sky 13.110 13.110 13.110 37 1.77 m/h 0 %


Chiniot's Tourist Spots

Historical Places in Chiniot

Famous Cities (61)